createdAt,value
2022-10-23T00:00:45.952Z,99358.34
2022-10-23T00:01:48.229Z,99357.13
2022-10-23T00:02:54.130Z,99356.72
2022-10-23T00:04:08.016Z,99360.13
2022-10-23T00:05:10.389Z,99353.53
2022-10-23T00:06:13.834Z,99356.09
2022-10-23T00:07:16.008Z,99341.78
2022-10-23T00:08:18.328Z,99347.25
2022-10-23T00:09:23.105Z,99349.25
2022-10-23T00:10:26.627Z,99339.50
2022-10-23T00:11:30.377Z,99336.03
2022-10-23T00:12:32.649Z,99327.53
2022-10-23T00:13:34.892Z,99336.69
2022-10-23T00:14:37.200Z,99330.91
2022-10-23T00:15:39.492Z,99327.13
2022-10-23T00:16:41.699Z,99332.00
2022-10-23T00:17:44.141Z,99329.38
2022-10-23T00:18:46.544Z,99328.13
2022-10-23T00:19:48.692Z,99334.16
2022-10-23T00:20:50.848Z,99332.19
2022-10-23T00:21:53.163Z,99340.00
2022-10-23T00:22:55.354Z,99327.06
2022-10-23T00:23:57.651Z,99333.41
2022-10-23T00:25:00.116Z,99334.88
2022-10-23T00:26:04.203Z,99333.09
2022-10-23T00:27:06.370Z,99334.16
2022-10-23T00:28:08.698Z,99328.06
2022-10-23T00:29:11.755Z,99329.63
2022-10-23T00:30:14.256Z,99337.41
2022-10-23T00:31:16.993Z,99331.53
2022-10-23T00:32:19.267Z,99327.88
2022-10-23T00:33:21.467Z,99325.97
2022-10-23T00:34:23.676Z,99333.50
2022-10-23T00:35:25.862Z,99326.78
2022-10-23T00:36:28.394Z,99332.22
2022-10-23T00:37:30.749Z,99323.63
2022-10-23T00:38:33.030Z,99329.56
2022-10-23T00:39:35.349Z,99325.41
2022-10-23T00:40:38.929Z,99328.81
2022-10-23T00:41:41.257Z,99325.03
2022-10-23T00:42:43.528Z,99317.41
2022-10-23T00:44:06.034Z,99321.53
2022-10-23T00:45:19.494Z,99322.00
2022-10-23T00:46:21.716Z,99333.66
2022-10-23T00:47:24.339Z,99320.88
2022-10-23T00:48:28.310Z,99331.97
2022-10-23T00:49:32.507Z,99324.78
2022-10-23T00:50:36.595Z,99326.34
2022-10-23T00:51:43.048Z,99331.41
2022-10-23T00:52:49.930Z,99330.53
2022-10-23T00:54:06.710Z,99324.97
2022-10-23T00:55:22.433Z,99327.03
2022-10-23T00:56:26.206Z,99329.31
2022-10-23T00:58:35.588Z,99321.22
2022-10-23T00:59:37.980Z,99321.84
2022-10-23T01:00:47.630Z,99319.97
2022-10-23T01:01:49.917Z,99317.06
2022-10-23T01:02:54.527Z,99323.28
2022-10-23T01:03:56.840Z,99316.34
2022-10-23T01:04:59.098Z,99308.19
2022-10-23T01:06:24.278Z,99313.09
2022-10-23T01:07:36.579Z,99313.03
2022-10-23T01:08:45.895Z,99312.72
2022-10-23T01:10:00.714Z,99309.31
2022-10-23T01:11:14.859Z,99312.72
2022-10-23T01:12:19.948Z,99305.56
2022-10-23T01:13:41.128Z,99293.25
2022-10-23T01:15:05.535Z,99291.63
2022-10-23T01:16:18.643Z,99298.50
2022-10-23T01:17:39.690Z,99298.16
2022-10-23T01:18:59.467Z,99290.53
2022-10-23T01:20:26.615Z,99287.72
2022-10-23T01:21:38.026Z,99283.78
2022-10-23T01:23:07.513Z,99281.47
2022-10-23T01:24:37.119Z,99283.97
2022-10-23T01:26:21.011Z,99286.41
2022-10-23T01:27:25.481Z,99283.66
2022-10-23T01:29:03.551Z,99282.53
2022-10-23T01:30:15.872Z,99281.41
2022-10-23T01:31:42.197Z,99280.91
2022-10-23T01:33:07.964Z,99285.22
2022-10-23T01:34:26.028Z,99290.91
2022-10-23T01:35:51.765Z,99281.72
2022-10-23T01:36:56.915Z,99279.41
2022-10-23T01:38:04.987Z,99283.91
2022-10-23T01:39:12.110Z,99277.41
2022-10-23T01:40:32.647Z,99281.47
2022-10-23T01:41:53.182Z,99284.97
2022-10-23T01:43:10.631Z,99275.97
2022-10-23T01:44:35.059Z,99280.06
2022-10-23T01:45:40.941Z,99280.44
2022-10-23T01:46:47.221Z,99286.19
2022-10-23T01:47:50.853Z,99283.00
2022-10-23T01:48:55.098Z,99285.25
2022-10-23T01:49:59.889Z,99281.16
2022-10-23T01:51:06.310Z,99284.59
2022-10-23T01:52:12.943Z,99278.69
2022-10-23T01:53:19.538Z,99282.78
2022-10-23T01:54:28.496Z,99269.22
2022-10-23T01:55:32.523Z,99282.06
2022-10-23T01:56:41.292Z,99271.69
2022-10-23T01:57:45.877Z,99273.66
2022-10-23T01:58:52.514Z,99272.78
2022-10-23T02:00:01.347Z,99264.56
2022-10-23T02:01:06.938Z,99268.50
2022-10-23T02:02:23.706Z,99258.47
2022-10-23T02:03:31.228Z,99270.31
2022-10-23T02:04:40.586Z,99265.16
2022-10-23T02:05:43.930Z,99257.47
2022-10-23T02:06:46.260Z,99261.47
2022-10-23T02:07:49.319Z,99256.78
2022-10-23T02:08:51.503Z,99250.97
2022-10-23T02:09:54.128Z,99243.22
2022-10-23T02:11:08.130Z,99227.84
2022-10-23T02:12:16.492Z,99233.69
2022-10-23T02:13:33.760Z,99220.50
2022-10-23T02:15:02.831Z,99229.31
2022-10-23T02:16:21.650Z,99222.97
2022-10-23T02:17:47.918Z,99228.50
2022-10-23T02:19:15.743Z,99227.00
2022-10-23T02:20:36.788Z,99232.28
2022-10-23T02:21:56.431Z,99232.09
2022-10-23T02:23:22.576Z,99235.66
2022-10-23T02:24:46.207Z,99237.75
2022-10-23T02:25:55.426Z,99246.28
2022-10-23T02:27:02.293Z,99235.06
2022-10-23T02:28:09.479Z,99230.44
2022-10-23T02:29:43.173Z,99229.31
2022-10-23T02:30:49.138Z,99216.59
2022-10-23T02:31:51.401Z,99223.38
2022-10-23T02:32:56.517Z,99224.69
2022-10-23T02:33:58.791Z,99220.00
2022-10-23T02:35:01.429Z,99211.31
2022-10-23T02:36:04.267Z,99218.28
2022-10-23T02:37:06.715Z,99227.25
2022-10-23T02:38:34.869Z,99220.41
2022-10-23T02:39:37.145Z,99217.50
2022-10-23T02:40:44.279Z,99221.75
2022-10-23T02:41:56.018Z,99225.63
2022-10-23T02:43:16.116Z,99219.88
2022-10-23T02:44:28.914Z,99217.75
2022-10-23T02:45:45.043Z,99214.78
2022-10-23T02:47:11.619Z,99208.31
2022-10-23T02:48:30.459Z,99215.19
2022-10-23T02:49:54.405Z,99220.75
2022-10-23T02:51:12.785Z,99213.56
2022-10-23T02:52:37.860Z,99212.38
2022-10-23T02:55:09.645Z,99201.16
2022-10-23T02:56:36.612Z,99195.41
2022-10-23T02:57:48.444Z,99192.34
2022-10-23T02:59:02.323Z,99201.78
2022-10-23T03:00:11.452Z,99205.13
2022-10-23T03:01:29.063Z,99205.56
2022-10-23T03:02:40.944Z,99196.91
2022-10-23T03:03:53.774Z,99201.84
2022-10-23T03:04:56.618Z,99210.66
2022-10-23T03:05:59.027Z,99215.25
2022-10-23T03:07:01.351Z,99206.91
2022-10-23T03:08:06.186Z,99206.84
2022-10-23T03:09:09.510Z,99209.19
2022-10-23T03:10:11.704Z,99201.84
2022-10-23T03:11:13.903Z,99199.78
2022-10-23T03:12:16.108Z,99197.16
2022-10-23T03:13:18.306Z,99197.22
2022-10-23T03:14:20.529Z,99196.59
2022-10-23T03:15:22.791Z,99195.34
2022-10-23T03:16:26.705Z,99195.25
2022-10-23T03:17:30.222Z,99187.09
2022-10-23T03:18:34.737Z,99194.84
2022-10-23T03:19:38.272Z,99196.41
2022-10-23T03:20:40.640Z,99190.53
2022-10-23T03:21:42.865Z,99192.91
2022-10-23T03:22:45.776Z,99190.78
2022-10-23T03:23:48.651Z,99186.34
2022-10-23T03:24:54.585Z,99195.69
2022-10-23T03:25:56.858Z,99187.53
2022-10-23T03:27:25.031Z,99186.88
2022-10-23T03:28:29.971Z,99182.25
2022-10-23T03:29:34.193Z,99182.13
2022-10-23T03:30:36.408Z,99182.59
2022-10-23T03:31:38.601Z,99179.19
2022-10-23T03:32:41.404Z,99182.75
2022-10-23T03:33:43.900Z,99179.44
2022-10-23T03:34:47.654Z,99183.84
2022-10-23T03:35:49.860Z,99184.97
2022-10-23T03:36:52.525Z,99186.50
2022-10-23T03:37:56.010Z,99195.75
2022-10-23T03:39:00.913Z,99191.19
2022-10-23T03:40:04.655Z,99187.34
2022-10-23T03:41:10.285Z,99178.47
2022-10-23T03:42:12.527Z,99186.97
2022-10-23T03:43:14.918Z,99189.25
2022-10-23T03:44:17.438Z,99185.13
2022-10-23T03:45:20.681Z,99191.19
2022-10-23T03:46:24.282Z,99190.31
2022-10-23T03:47:30.407Z,99186.00
2022-10-23T03:48:33.178Z,99188.03
2022-10-23T03:49:35.712Z,99186.00
2022-10-23T03:50:41.590Z,99184.06
2022-10-23T03:51:44.848Z,99186.41
2022-10-23T03:52:47.167Z,99189.59
2022-10-23T03:53:49.677Z,99188.63
2022-10-23T03:54:51.862Z,99188.38
2022-10-23T03:55:54.090Z,99185.19
2022-10-23T03:56:57.784Z,99186.88
2022-10-23T03:58:01.336Z,99192.09
2022-10-23T03:59:03.540Z,99182.91
2022-10-23T04:00:06.915Z,99183.47
2022-10-23T04:01:18.580Z,99182.06
2022-10-23T04:02:21.747Z,99185.88
2022-10-23T04:03:24.088Z,99186.66
2022-10-23T04:04:27.158Z,99179.47
2022-10-23T04:05:29.339Z,99178.38
2022-10-23T04:06:34.418Z,99181.63
2022-10-23T04:07:37.420Z,99181.56
2022-10-23T04:08:39.685Z,99174.41
2022-10-23T04:09:48.557Z,99178.66
2022-10-23T04:10:52.166Z,99177.72
2022-10-23T04:11:59.872Z,99181.91
2022-10-23T04:13:03.663Z,99176.44
2022-10-23T04:14:13.185Z,99166.81
2022-10-23T04:15:15.404Z,99175.56
2022-10-23T04:16:20.862Z,99178.00
2022-10-23T04:17:23.136Z,99164.78
2022-10-23T04:18:25.394Z,99169.13
2022-10-23T04:19:27.660Z,99174.84
2022-10-23T04:20:32.535Z,99163.38
2022-10-23T04:21:37.790Z,99169.38
2022-10-23T04:22:40.227Z,99159.44
2022-10-23T04:23:42.924Z,99168.28
2022-10-23T04:24:50.823Z,99154.34
2022-10-23T04:25:56.923Z,99161.38
2022-10-23T04:27:00.346Z,99165.34
2022-10-23T04:28:04.918Z,99171.28
2022-10-23T04:29:12.013Z,99161.75
2022-10-23T04:30:14.298Z,99170.66
2022-10-23T04:31:16.594Z,99168.41
2022-10-23T04:32:19.151Z,99174.06
2022-10-23T04:33:21.435Z,99169.41
2022-10-23T04:34:25.951Z,99176.63
2022-10-23T04:35:29.489Z,99172.78
2022-10-23T04:36:31.771Z,99176.16
2022-10-23T04:37:43.200Z,99173.97
2022-10-23T04:38:45.749Z,99170.28
2022-10-23T04:39:48.036Z,99174.28
2022-10-23T04:40:50.607Z,99176.16
2022-10-23T04:41:56.627Z,99165.13
2022-10-23T04:43:00.869Z,99160.66
2022-10-23T04:44:07.601Z,99168.50
2022-10-23T04:45:13.463Z,99163.13
2022-10-23T04:46:17.673Z,99167.94
2022-10-23T04:47:22.697Z,99150.59
2022-10-23T04:48:32.522Z,99156.91
2022-10-23T04:49:57.131Z,99160.47
2022-10-23T04:51:18.314Z,99159.44
2022-10-23T04:52:38.074Z,99169.88
2022-10-23T04:54:00.418Z,99164.53
2022-10-23T04:55:20.812Z,99174.59
2022-10-23T04:56:40.872Z,99171.13
2022-10-23T04:57:46.989Z,99163.16
2022-10-23T04:58:52.686Z,99173.06
2022-10-23T04:59:55.052Z,99169.94
2022-10-23T05:00:58.641Z,99162.59
2022-10-23T05:02:02.023Z,99162.13
2022-10-23T05:03:04.657Z,99161.63
2022-10-23T05:04:14.319Z,99159.34
2022-10-23T05:05:40.153Z,99159.34
2022-10-23T05:06:58.000Z,99159.13
2022-10-23T05:08:32.798Z,99159.47
2022-10-23T05:09:54.368Z,99160.97
2022-10-23T05:11:22.963Z,99154.69
2022-10-23T05:12:27.530Z,99148.94
2022-10-23T05:13:30.043Z,99136.53
2022-10-23T05:14:32.338Z,99136.00
2022-10-23T05:15:34.733Z,99134.75
2022-10-23T05:16:42.800Z,99138.28
2022-10-23T05:17:49.634Z,99139.38
2022-10-23T05:18:51.809Z,99137.09
2022-10-23T05:19:57.012Z,99139.94
2022-10-23T05:21:15.218Z,99127.34
2022-10-23T05:22:19.278Z,99129.50
2022-10-23T05:23:26.440Z,99126.19
2022-10-23T05:24:35.856Z,99139.94
2022-10-23T05:25:39.605Z,99135.81
2022-10-23T05:26:52.773Z,99132.69
2022-10-23T05:27:55.825Z,99127.00
2022-10-23T05:28:58.051Z,99122.25
2022-10-23T05:30:00.368Z,99129.41
2022-10-23T05:31:06.496Z,99132.78
2022-10-23T05:32:14.415Z,99125.66
2022-10-23T05:33:17.748Z,99132.84
2022-10-23T05:34:25.424Z,99130.94
2022-10-23T05:35:29.537Z,99129.56
2022-10-23T05:36:31.972Z,99124.28
2022-10-23T05:37:34.305Z,99126.88
2022-10-23T05:39:02.560Z,99136.94
2022-10-23T05:40:05.239Z,99127.75
2022-10-23T05:41:10.310Z,99128.03
2022-10-23T05:42:13.023Z,99131.31
2022-10-23T05:43:16.535Z,99129.03
2022-10-23T05:44:28.358Z,99131.44
2022-10-23T05:45:54.211Z,99116.03
2022-10-23T05:47:16.343Z,99129.13
2022-10-23T05:48:37.432Z,99133.00
2022-10-23T05:50:02.466Z,99136.09
2022-10-23T05:51:41.107Z,99128.53
2022-10-23T05:52:57.624Z,99136.09
2022-10-23T05:54:08.154Z,99126.06
2022-10-23T05:55:30.542Z,99123.69
2022-10-23T05:56:53.079Z,99119.28
2022-10-23T05:57:57.588Z,99115.53
2022-10-23T05:59:22.835Z,99114.47
2022-10-23T06:00:29.238Z,99129.00
2022-10-23T06:01:49.740Z,99123.25
2022-10-23T06:03:01.118Z,99124.41
2022-10-23T06:04:13.882Z,99117.13
2022-10-23T06:05:36.086Z,99114.69
2022-10-23T06:07:04.611Z,99111.34
2022-10-23T06:08:07.615Z,99100.88
2022-10-23T06:09:09.936Z,99113.44
2022-10-23T06:10:15.041Z,99111.09
2022-10-23T06:11:20.952Z,99111.03
2022-10-23T06:12:33.016Z,99107.38
2022-10-23T06:13:35.958Z,99114.13
2022-10-23T06:14:38.459Z,99112.50
2022-10-23T06:15:40.828Z,99104.91
2022-10-23T06:16:52.438Z,99110.09
2022-10-23T06:17:55.707Z,99105.66
2022-10-23T06:18:58.649Z,99102.56
2022-10-23T06:20:02.445Z,99105.56
2022-10-23T06:21:09.531Z,99108.66
2022-10-23T06:22:12.434Z,99112.16
2022-10-23T06:23:25.388Z,99105.47
2022-10-23T06:25:00.299Z,99111.59
2022-10-23T06:26:04.677Z,99109.50
2022-10-23T06:27:18.559Z,99100.28
2022-10-23T06:28:22.336Z,99104.09
2022-10-23T06:29:24.844Z,99096.34
2022-10-23T06:30:27.119Z,99092.97
2022-10-23T06:31:29.615Z,99094.88
2022-10-23T06:32:33.198Z,99093.69
2022-10-23T06:33:46.457Z,99091.31
2022-10-23T06:34:48.831Z,99087.47
2022-10-23T06:35:51.138Z,99095.59
2022-10-23T06:36:54.015Z,99091.75
2022-10-23T06:38:18.217Z,99088.94
2022-10-23T06:39:29.894Z,99087.75
2022-10-23T06:40:56.650Z,99082.88
2022-10-23T06:42:09.118Z,99088.56
2022-10-23T06:43:40.762Z,99072.13
2022-10-23T06:45:09.472Z,99076.22
2022-10-23T06:46:35.025Z,99085.25
2022-10-23T06:47:55.754Z,99087.66
2022-10-23T06:49:27.286Z,99087.34
2022-10-23T06:50:33.472Z,99085.28
2022-10-23T06:51:41.320Z,99086.47
2022-10-23T06:52:48.033Z,99086.56
2022-10-23T06:53:52.940Z,99079.25
2022-10-23T06:55:15.134Z,99090.69
2022-10-23T06:56:17.636Z,99089.16
2022-10-23T06:57:20.850Z,99104.81
2022-10-23T06:58:25.862Z,99106.59
2022-10-23T06:59:37.571Z,99106.44
2022-10-23T07:00:41.471Z,99109.00
2022-10-23T07:01:44.069Z,99097.44
2022-10-23T07:02:46.536Z,99101.78
2022-10-23T07:03:49.408Z,99096.25
2022-10-23T07:04:56.071Z,99094.91
2022-10-23T07:06:08.681Z,99084.16
2022-10-23T07:07:11.423Z,99092.28
2022-10-23T07:08:21.612Z,99089.78
2022-10-23T07:09:26.966Z,99099.97
2022-10-23T07:10:29.214Z,99102.44
2022-10-23T07:11:37.204Z,99091.59
2022-10-23T07:12:39.468Z,99088.59
2022-10-23T07:14:17.015Z,99089.41
2022-10-23T07:15:29.243Z,99089.41
2022-10-23T07:16:32.898Z,99091.28
2022-10-23T07:17:35.089Z,99091.91
2022-10-23T07:18:38.540Z,99098.38
2022-10-23T07:19:56.190Z,99106.59
2022-10-23T07:20:59.107Z,99107.53
2022-10-23T07:22:01.542Z,99108.22
2022-10-23T07:23:07.094Z,99108.19
2022-10-23T07:24:13.740Z,99098.47
2022-10-23T07:25:16.170Z,99113.50
2022-10-23T07:26:18.872Z,99114.31
2022-10-23T07:27:23.513Z,99119.16
2022-10-23T07:28:31.314Z,99121.63
2022-10-23T07:29:34.302Z,99113.41
2022-10-23T07:30:37.873Z,99118.38
2022-10-23T07:31:40.609Z,99112.22
2022-10-23T07:33:01.105Z,99115.84
2022-10-23T07:34:32.163Z,99114.53
2022-10-23T07:35:54.763Z,99116.03
2022-10-23T07:37:02.719Z,99122.88
2022-10-23T07:38:05.612Z,99114.94
2022-10-23T07:39:12.343Z,99117.50
2022-10-23T07:40:22.002Z,99122.97
2022-10-23T07:41:27.097Z,99119.09
2022-10-23T07:42:29.350Z,99115.69
2022-10-23T07:43:33.929Z,99110.03
2022-10-23T07:44:36.291Z,99110.41
2022-10-23T07:45:39.093Z,99120.81
2022-10-23T07:46:50.238Z,99121.41
2022-10-23T07:47:53.270Z,99118.44
2022-10-23T07:48:59.042Z,99126.34
2022-10-23T07:50:01.274Z,99112.44
2022-10-23T07:51:14.979Z,99117.84
2022-10-23T07:52:20.732Z,99109.00
2022-10-23T07:53:49.087Z,99120.44
2022-10-23T07:55:08.921Z,99117.84
2022-10-23T07:56:17.051Z,99122.09
2022-10-23T07:57:42.106Z,99115.59
2022-10-23T07:58:58.870Z,99109.72
2022-10-23T08:00:01.145Z,99107.44
2022-10-23T08:01:16.457Z,99106.25
2022-10-23T08:02:20.639Z,99110.47
2022-10-23T08:03:34.134Z,99109.47
2022-10-23T08:04:38.019Z,99104.34
2022-10-23T08:05:50.060Z,99104.84
2022-10-23T08:06:52.684Z,99101.28
2022-10-23T08:07:55.579Z,99100.25
2022-10-23T08:08:59.939Z,99106.28
2022-10-23T08:10:05.674Z,99100.63
2022-10-23T08:11:12.403Z,99105.81
2022-10-23T08:12:23.947Z,99102.72
2022-10-23T08:13:26.092Z,99102.41
2022-10-23T08:14:35.127Z,99103.09
2022-10-23T08:15:37.387Z,99105.97
2022-10-23T08:16:48.994Z,99101.50
2022-10-23T08:17:53.683Z,99108.53
2022-10-23T08:19:11.783Z,99101.03
2022-10-23T08:20:17.427Z,99108.41
2022-10-23T08:21:21.110Z,99101.81
2022-10-23T08:22:24.798Z,99106.41
2022-10-23T08:23:27.784Z,99113.00
2022-10-23T08:24:30.156Z,99105.25
2022-10-23T08:26:41.216Z,99105.63
2022-10-23T08:27:45.706Z,99110.13
2022-10-23T08:28:49.486Z,99107.84
2022-10-23T08:29:51.705Z,99112.94
2022-10-23T08:30:54.417Z,99120.56
2022-10-23T08:31:57.379Z,99102.91
2022-10-23T08:33:07.572Z,99099.88
2022-10-23T08:34:10.366Z,99100.38
2022-10-23T08:35:12.920Z,99099.78
2022-10-23T08:36:24.611Z,99098.44
2022-10-23T08:37:26.786Z,99100.88
2022-10-23T08:38:29.205Z,99100.16
2022-10-23T08:39:32.036Z,99101.72
2022-10-23T08:40:55.429Z,99106.78
2022-10-23T08:42:24.269Z,99107.56
2022-10-23T08:43:37.523Z,99109.50
2022-10-23T08:45:00.531Z,99098.53
2022-10-23T08:46:10.848Z,99106.28
2022-10-23T08:47:44.790Z,99117.63
2022-10-23T08:49:26.399Z,99113.91
2022-10-23T08:50:42.487Z,99107.88
2022-10-23T08:51:49.093Z,99118.13
2022-10-23T08:53:04.870Z,99108.44
2022-10-23T08:54:20.786Z,99109.63
2022-10-23T08:55:46.076Z,99104.22
2022-10-23T08:57:00.186Z,99111.03
2022-10-23T08:58:18.386Z,99111.50
2022-10-23T08:59:28.935Z,99103.34
2022-10-23T09:00:31.204Z,99103.00
2022-10-23T09:01:40.788Z,99107.75
2022-10-23T09:02:46.547Z,99115.22
2022-10-23T09:03:48.767Z,99111.72
2022-10-23T09:04:53.619Z,99107.31
2022-10-23T09:06:19.474Z,99110.22
2022-10-23T09:07:34.556Z,99112.59
2022-10-23T09:08:44.520Z,99115.50
2022-10-23T09:10:05.128Z,99112.53
2022-10-23T09:11:43.988Z,99107.50
2022-10-23T09:12:47.228Z,99103.13
2022-10-23T09:14:12.331Z,99102.94
2022-10-23T09:15:28.290Z,99092.00
2022-10-23T09:16:47.600Z,99090.09
2022-10-23T09:18:10.971Z,99088.91
2022-10-23T09:19:19.372Z,99088.31
2022-10-23T09:20:24.562Z,99086.06
2022-10-23T09:21:29.366Z,99079.13
2022-10-23T09:22:31.644Z,99079.00
2022-10-23T09:23:33.774Z,99073.75
2022-10-23T09:24:36.431Z,99082.78
2022-10-23T09:25:40.940Z,99072.97
2022-10-23T09:26:49.988Z,99066.66
2022-10-23T09:27:56.740Z,99066.59
2022-10-23T09:29:20.880Z,99076.69
2022-10-23T09:30:27.397Z,99074.03
2022-10-23T09:31:29.521Z,99063.38
2022-10-23T09:32:38.283Z,99065.63
2022-10-23T09:33:40.907Z,99051.72
2022-10-23T09:34:54.763Z,99052.34
2022-10-23T09:36:00.558Z,99058.66
2022-10-23T09:37:17.345Z,99057.44
2022-10-23T09:38:39.771Z,99070.31
2022-10-23T09:39:42.060Z,99066.19
2022-10-23T09:40:44.501Z,99067.28
2022-10-23T09:41:46.854Z,99068.00
2022-10-23T09:43:04.307Z,99060.06
2022-10-23T09:44:26.827Z,99068.00
2022-10-23T09:45:34.167Z,99057.41
2022-10-23T09:47:01.246Z,99056.94
2022-10-23T09:48:23.566Z,99061.97
2022-10-23T09:49:30.826Z,99067.88
2022-10-23T09:50:33.145Z,99067.53
2022-10-23T09:51:35.391Z,99069.19
2022-10-23T09:52:38.864Z,99067.50
2022-10-23T09:53:52.156Z,99065.81
2022-10-23T09:54:57.439Z,99065.88
2022-10-23T09:56:25.973Z,99073.78
2022-10-23T09:57:42.576Z,99071.78
2022-10-23T09:58:55.605Z,99071.00
2022-10-23T10:00:19.466Z,99066.78
2022-10-23T10:01:27.069Z,99067.16
2022-10-23T10:02:36.474Z,99057.25
2022-10-23T10:04:03.215Z,99062.03
2022-10-23T10:05:26.562Z,99067.75
2022-10-23T10:06:33.912Z,99069.19
2022-10-23T10:07:36.860Z,99063.91
2022-10-23T10:08:51.435Z,99068.63
2022-10-23T10:09:55.490Z,99057.16
2022-10-23T10:11:10.227Z,99075.63
2022-10-23T10:12:20.250Z,99063.56
2022-10-23T10:13:36.432Z,99076.19
2022-10-23T10:14:49.790Z,99073.94
2022-10-23T10:16:01.242Z,99066.69
2022-10-23T10:17:34.036Z,99069.53
2022-10-23T10:18:43.235Z,99070.22
2022-10-23T10:20:07.370Z,99074.84
2022-10-23T10:21:28.337Z,99068.19
2022-10-23T10:22:40.516Z,99066.66
2022-10-23T10:24:12.459Z,99052.44
2022-10-23T10:25:21.250Z,99059.94
2022-10-23T10:26:51.049Z,99057.34
2022-10-23T10:28:17.240Z,99057.16
2022-10-23T10:29:30.776Z,99057.03
2022-10-23T10:30:51.796Z,99052.19
2022-10-23T10:32:05.933Z,99052.72
2022-10-23T10:33:27.286Z,99034.72
2022-10-23T10:34:40.208Z,99026.31
2022-10-23T10:36:10.088Z,99032.66
2022-10-23T10:37:43.879Z,99019.25
2022-10-23T10:38:56.682Z,99009.47
2022-10-23T10:40:13.276Z,99001.34
2022-10-23T10:41:32.464Z,99004.00
2022-10-23T10:43:07.817Z,99001.06
2022-10-23T10:44:59.979Z,99003.63
2022-10-23T10:46:35.951Z,99005.13
2022-10-23T10:48:01.459Z,98995.53
2022-10-23T10:49:15.993Z,98999.22
2022-10-23T10:50:47.727Z,99007.22
2022-10-23T10:52:27.631Z,99020.19
2022-10-23T10:53:50.783Z,99026.88
2022-10-23T10:55:30.309Z,99017.47
2022-10-23T10:56:37.139Z,99012.94
2022-10-23T10:57:43.568Z,99021.13
2022-10-23T10:58:53.852Z,99017.03
2022-10-23T11:00:01.497Z,99020.63
2022-10-23T11:01:13.689Z,99017.03
2022-10-23T11:02:27.607Z,99013.84
2022-10-23T11:03:46.656Z,99021.84
2022-10-23T11:04:54.704Z,99023.47
2022-10-23T11:07:14.804Z,99014.41
2022-10-23T11:08:22.186Z,99000.81
2022-10-23T11:09:29.283Z,99005.91
2022-10-23T11:10:34.659Z,99004.50
2022-10-23T11:11:40.656Z,99000.88
2022-10-23T11:12:45.545Z,98992.94
2022-10-23T11:13:51.295Z,98988.09
2022-10-23T11:14:53.761Z,98982.44
2022-10-23T11:16:05.633Z,98978.59
2022-10-23T11:17:26.213Z,98983.03
2022-10-23T11:18:31.741Z,98980.88
2022-10-23T11:19:52.165Z,98988.94
2022-10-23T11:21:17.122Z,98987.50
2022-10-23T11:22:43.442Z,98978.22
2022-10-23T11:24:00.277Z,98971.69
2022-10-23T11:25:44.201Z,98958.97
2022-10-23T11:27:27.493Z,98965.44
2022-10-23T11:28:45.955Z,98969.00
2022-10-23T11:30:21.203Z,98963.19
2022-10-23T11:31:41.342Z,98961.81
2022-10-23T11:32:55.517Z,98965.09
2022-10-23T11:34:35.585Z,98953.56
2022-10-23T11:35:57.205Z,98951.00
2022-10-23T11:37:04.746Z,98944.41
2022-10-23T11:38:12.653Z,98938.69
2022-10-23T11:39:17.448Z,98936.72
2022-10-23T11:40:24.116Z,98936.19
2022-10-23T11:41:33.991Z,98943.59
2022-10-23T11:42:38.824Z,98947.31
2022-10-23T11:44:03.325Z,98939.75
2022-10-23T11:45:27.160Z,98942.97
2022-10-23T11:46:37.107Z,98935.53
2022-10-23T11:47:40.771Z,98937.38
2022-10-23T11:48:44.600Z,98935.41
2022-10-23T11:49:46.898Z,98932.31
2022-10-23T11:50:50.024Z,98935.84
2022-10-23T11:52:05.653Z,98933.31
2022-10-23T11:53:43.345Z,98937.94
2022-10-23T11:54:45.536Z,98940.91
2022-10-23T11:56:12.726Z,98934.44
2022-10-23T11:57:17.291Z,98928.97
2022-10-23T11:58:24.003Z,98930.88
2022-10-23T11:59:31.601Z,98931.03
2022-10-23T12:00:39.572Z,98930.78
2022-10-23T12:01:45.335Z,98936.97
2022-10-23T12:02:58.948Z,98931.31
2022-10-23T12:04:21.156Z,98934.00
2022-10-23T12:05:41.371Z,98930.91
2022-10-23T12:06:57.449Z,98936.66
2022-10-23T12:08:02.269Z,98932.47
2022-10-23T12:09:22.928Z,98924.63
2022-10-23T12:10:30.766Z,98928.53
2022-10-23T12:11:46.721Z,98931.03
2022-10-23T12:12:59.747Z,98929.78
2022-10-23T12:14:01.965Z,98928.78
2022-10-23T12:15:16.254Z,98923.41
2022-10-23T12:16:18.386Z,98924.13
2022-10-23T12:17:23.267Z,98919.22
2022-10-23T12:18:27.377Z,98923.16
2022-10-23T12:19:42.994Z,98912.06
2022-10-23T12:20:56.410Z,98910.06
2022-10-23T12:22:01.384Z,98914.59
2022-10-23T12:23:23.883Z,98918.06
2022-10-23T12:24:34.678Z,98918.94
2022-10-23T12:26:14.375Z,98916.25
2022-10-23T12:27:20.971Z,98911.00
2022-10-23T12:28:39.340Z,98907.19
2022-10-23T12:30:03.194Z,98907.31
2022-10-23T12:31:38.650Z,98909.44
2022-10-23T12:33:23.566Z,98901.56
2022-10-23T12:34:56.994Z,98906.47
2022-10-23T12:36:24.681Z,98914.81
2022-10-23T12:37:59.851Z,98909.34
2022-10-23T12:39:02.106Z,98910.97
2022-10-23T12:40:09.201Z,98911.63
2022-10-23T12:41:15.928Z,98904.31
2022-10-23T12:42:29.116Z,98902.22
2022-10-23T12:43:34.976Z,98896.47
2022-10-23T12:44:42.956Z,98896.47
2022-10-23T12:45:45.351Z,98893.22
2022-10-23T12:46:51.167Z,98890.13
2022-10-23T12:47:56.504Z,98891.25
2022-10-23T12:49:03.987Z,98887.63
2022-10-23T12:50:30.257Z,98887.41
2022-10-23T12:51:34.389Z,98881.94
2022-10-23T12:52:39.549Z,98881.78
2022-10-23T12:53:41.825Z,98881.09
2022-10-23T12:54:44.533Z,98878.78
2022-10-23T12:56:04.990Z,98880.19
2022-10-23T12:57:22.373Z,98875.97
2022-10-23T12:58:31.757Z,98879.16
2022-10-23T12:59:39.022Z,98867.88
2022-10-23T13:00:51.006Z,98868.44
2022-10-23T13:01:55.056Z,98865.19
2022-10-23T13:03:03.840Z,98861.69
2022-10-23T13:04:22.017Z,98864.41
2022-10-23T13:05:25.094Z,98858.06
2022-10-23T13:06:32.407Z,98860.47
2022-10-23T13:07:40.905Z,98853.16
2022-10-23T13:08:47.510Z,98859.59
2022-10-23T13:10:18.596Z,98844.88
2022-10-23T13:11:29.839Z,98851.91
2022-10-23T13:12:38.531Z,98850.91
2022-10-23T13:13:41.926Z,98851.69
2022-10-23T13:15:03.492Z,98853.34
2022-10-23T13:16:17.739Z,98846.22
2022-10-23T13:17:19.886Z,98839.06
2022-10-23T13:18:22.295Z,98840.75
2022-10-23T13:19:26.053Z,98833.75
2022-10-23T13:20:31.434Z,98833.34
2022-10-23T13:21:34.012Z,98842.84
2022-10-23T13:22:36.179Z,98835.47
2022-10-23T13:23:41.801Z,98839.25
2022-10-23T13:24:44.036Z,98831.69
2022-10-23T13:25:57.462Z,98829.88
2022-10-23T13:27:00.801Z,98831.25
2022-10-23T13:28:12.841Z,98832.31
2022-10-23T13:29:23.419Z,98833.91
2022-10-23T13:30:34.175Z,98826.53
2022-10-23T13:31:36.786Z,98812.47
2022-10-23T13:32:38.923Z,98818.50
2022-10-23T13:33:43.867Z,98820.03
2022-10-23T13:35:03.564Z,98817.81
2022-10-23T13:36:15.247Z,98810.53
2022-10-23T13:37:28.957Z,98814.41
2022-10-23T13:38:35.092Z,98819.09
2022-10-23T13:39:37.266Z,98816.66
2022-10-23T13:40:39.657Z,98815.91
2022-10-23T13:41:46.901Z,98816.19
2022-10-23T13:42:53.963Z,98824.22
2022-10-23T13:43:59.126Z,98820.44
2022-10-23T13:45:01.642Z,98823.78
2022-10-23T13:46:03.884Z,98815.38
2022-10-23T13:47:12.947Z,98811.38
2022-10-23T13:48:16.043Z,98813.84
2022-10-23T13:49:19.258Z,98816.28
2022-10-23T13:50:21.954Z,98803.16
2022-10-23T13:51:33.376Z,98807.38
2022-10-23T13:52:38.042Z,98806.25